createdAt,value
2023-03-16T00:00:05.071Z,-1.03
2023-03-16T00:05:01.544Z,-0.95
2023-03-16T00:09:57.853Z,-0.99
2023-03-16T00:14:54.251Z,-1.00
2023-03-16T00:19:56.079Z,-0.92
2023-03-16T00:24:53.348Z,-0.91
2023-03-16T00:29:55.488Z,-0.96
2023-03-16T00:34:52.178Z,-0.97
2023-03-16T00:39:49.571Z,-0.97
2023-03-16T00:44:46.303Z,-0.97
2023-03-16T00:49:44.007Z,-0.95
2023-03-16T00:54:45.314Z,-0.96
2023-03-16T00:59:42.177Z,-0.96
2023-03-16T01:04:40.137Z,-0.94
2023-03-16T01:09:36.836Z,-0.99
2023-03-16T01:14:35.006Z,-0.94
2023-03-16T01:19:35.597Z,-0.96
2023-03-16T01:24:33.972Z,-1.01
2023-03-16T01:29:30.878Z,-1.03
2023-03-16T01:34:27.681Z,-1.14
2023-03-16T01:39:24.197Z,-1.18
2023-03-16T01:44:30.859Z,-1.13
2023-03-16T01:49:32.794Z,-1.16
2023-03-16T01:54:42.345Z,-1.21
2023-03-16T01:59:44.441Z,-1.16
2023-03-16T02:05:02.009Z,-1.08
2023-03-16T02:10:00.941Z,-1.08
2023-03-16T02:14:57.246Z,-1.12
2023-03-16T02:20:16.457Z,-1.17
2023-03-16T02:25:15.835Z,-1.16
2023-03-16T02:30:14.270Z,-1.18
2023-03-16T02:35:12.917Z,-1.22
2023-03-16T02:40:28.686Z,-1.26
2023-03-16T02:45:33.685Z,-1.23
2023-03-16T02:50:30.198Z,-1.19
2023-03-16T02:55:26.682Z,-1.20
2023-03-16T03:00:23.198Z,-1.22
2023-03-16T03:05:19.608Z,-1.21
2023-03-16T03:10:16.112Z,-1.19
2023-03-16T03:15:12.451Z,-1.25
2023-03-16T03:20:16.269Z,-1.23
2023-03-16T03:25:14.200Z,-1.24
2023-03-16T03:30:12.865Z,-1.12
2023-03-16T03:35:12.551Z,-1.17
2023-03-16T03:40:10.976Z,-1.16
2023-03-16T03:45:08.322Z,-1.28
2023-03-16T03:50:05.579Z,-1.34
2023-03-16T03:55:02.359Z,-1.39
2023-03-16T03:59:58.680Z,-1.32
2023-03-16T04:04:55.014Z,-1.18
2023-03-16T04:09:51.689Z,-1.21
2023-03-16T04:14:48.007Z,-1.21
2023-03-16T04:19:44.329Z,-1.16
2023-03-16T04:24:43.092Z,-1.13
2023-03-16T04:29:39.679Z,-1.19
2023-03-16T04:34:36.099Z,-1.25
2023-03-16T04:39:32.415Z,-1.16
2023-03-16T04:44:28.861Z,-1.08
2023-03-16T04:49:25.199Z,-1.04
2023-03-16T04:54:21.519Z,-0.86
2023-03-16T04:59:17.910Z,-0.83
2023-03-16T05:04:19.226Z,-0.73
2023-03-16T05:09:16.159Z,-0.70
2023-03-16T05:14:12.558Z,-0.63
2023-03-16T05:19:09.039Z,-0.43
2023-03-16T05:24:06.127Z,-0.41
2023-03-16T05:29:02.474Z,-0.34
2023-03-16T05:33:59.074Z,-0.23
2023-03-16T05:38:55.648Z,-0.15
2023-03-16T05:43:53.128Z,-0.02
2023-03-16T05:48:49.536Z,0.07
2023-03-16T05:53:46.746Z,0.20
2023-03-16T05:58:43.106Z,0.31
2023-03-16T06:03:39.471Z,0.64
2023-03-16T06:08:35.841Z,1.04
2023-03-16T06:13:32.326Z,1.04
2023-03-16T06:18:29.445Z,0.97
2023-03-16T06:23:26.253Z,1.00
2023-03-16T06:28:23.307Z,1.03
2023-03-16T06:33:19.677Z,1.08
2023-03-16T06:38:16.466Z,1.20
2023-03-16T06:43:12.848Z,1.35
2023-03-16T06:48:09.910Z,1.55
2023-03-16T06:53:06.428Z,1.69
2023-03-16T06:58:02.796Z,1.87
2023-03-16T07:03:00.525Z,2.06
2023-03-16T07:07:57.438Z,2.24
2023-03-16T07:12:55.273Z,2.36
2023-03-16T07:17:52.495Z,2.53
2023-03-16T07:22:48.962Z,2.61
2023-03-16T07:27:47.444Z,2.76
2023-03-16T07:32:43.889Z,2.97
2023-03-16T07:37:40.334Z,3.07
2023-03-16T07:42:37.110Z,3.09
2023-03-16T07:47:33.978Z,3.24
2023-03-16T07:52:30.385Z,3.43
2023-03-16T07:57:26.797Z,3.62
2023-03-16T08:02:23.211Z,3.78
2023-03-16T08:07:20.017Z,4.03
2023-03-16T08:12:16.381Z,4.27
2023-03-16T08:17:12.779Z,4.44
2023-03-16T08:22:09.379Z,4.49
2023-03-16T08:27:05.832Z,4.53
2023-03-16T08:32:03.097Z,4.73
2023-03-16T08:36:59.989Z,5.07
2023-03-16T08:41:57.242Z,5.31
2023-03-16T08:46:54.194Z,5.54
2023-03-16T08:51:50.730Z,5.57
2023-03-16T08:56:47.099Z,5.57
2023-03-16T09:01:43.570Z,6.19
2023-03-16T09:06:40.356Z,6.57
2023-03-16T09:11:36.738Z,6.53
2023-03-16T09:16:33.240Z,6.40
2023-03-16T09:21:31.230Z,6.66
2023-03-16T09:26:28.554Z,6.91
2023-03-16T09:31:25.593Z,7.16
2023-03-16T09:36:22.011Z,7.22
2023-03-16T09:41:50.338Z,7.48
2023-03-16T09:46:49.587Z,7.62
2023-03-16T09:52:06.081Z,7.81
2023-03-16T09:57:05.064Z,8.08
2023-03-16T10:02:51.224Z,7.92
2023-03-16T10:08:04.565Z,8.39
2023-03-16T10:13:02.477Z,8.96
2023-03-16T10:18:32.323Z,9.10
2023-03-16T10:23:34.378Z,8.80
2023-03-16T10:28:32.192Z,8.76
2023-03-16T10:33:33.677Z,8.90
2023-03-16T10:39:06.207Z,9.06
2023-03-16T10:44:14.714Z,9.18
2023-03-16T10:49:25.734Z,9.33
2023-03-16T10:54:31.712Z,9.24
2023-03-16T10:59:36.899Z,9.58
2023-03-16T11:04:33.824Z,9.41
2023-03-16T11:09:34.786Z,9.17
2023-03-16T11:14:33.753Z,9.16
2023-03-16T11:19:37.462Z,8.73
2023-03-16T11:24:42.834Z,8.62
2023-03-16T11:29:52.688Z,8.55
2023-03-16T11:34:49.045Z,8.66
2023-03-16T11:40:23.576Z,8.31
2023-03-16T11:45:35.278Z,8.41
2023-03-16T11:50:48.106Z,8.43
2023-03-16T11:56:05.435Z,8.54
2023-03-16T12:01:14.681Z,8.58
2023-03-16T12:06:35.012Z,8.53
2023-03-16T12:11:51.474Z,8.76
2023-03-16T12:17:05.373Z,8.73
2023-03-16T12:22:19.870Z,8.97
2023-03-16T12:27:22.586Z,8.75
2023-03-16T12:32:42.096Z,8.89
2023-03-16T12:37:50.936Z,8.86
2023-03-16T12:42:52.405Z,8.93
2023-03-16T12:48:09.843Z,9.20
2023-03-16T12:53:06.919Z,8.91
2023-03-16T12:58:07.638Z,8.82
2023-03-16T13:03:06.492Z,8.65
2023-03-16T13:08:11.549Z,8.51
2023-03-16T13:13:11.343Z,8.60
2023-03-16T13:18:20.209Z,8.57
2023-03-16T13:23:27.521Z,8.49
2023-03-16T13:28:29.890Z,8.61
2023-03-16T13:33:38.222Z,9.12
2023-03-16T13:38:34.651Z,9.14
2023-03-16T13:43:33.043Z,9.74
2023-03-16T13:48:29.902Z,10.13
2023-03-16T13:53:31.606Z,9.93
2023-03-16T13:58:35.551Z,9.69
2023-03-16T14:03:38.289Z,9.38
2023-03-16T14:08:34.814Z,9.19
2023-03-16T14:13:36.057Z,9.15
2023-03-16T14:18:37.220Z,8.86
2023-03-16T14:23:37.908Z,8.77
2023-03-16T14:28:34.564Z,8.86
2023-03-16T14:33:37.853Z,8.73
2023-03-16T14:38:36.927Z,8.68
2023-03-16T14:43:38.961Z,8.74
2023-03-16T14:48:35.822Z,8.98
2023-03-16T14:53:32.146Z,8.91
2023-03-16T14:58:28.458Z,8.97
2023-03-16T15:03:33.012Z,9.18
2023-03-16T15:08:33.710Z,9.31
2023-03-16T15:13:41.921Z,9.05
2023-03-16T15:18:39.799Z,9.06
2023-03-16T15:23:36.585Z,8.97
2023-03-16T15:28:34.456Z,8.82
2023-03-16T15:33:31.153Z,8.94
2023-03-16T15:38:32.222Z,9.13
2023-03-16T15:43:30.603Z,9.28
2023-03-16T15:48:27.078Z,9.37
2023-03-16T15:54:02.069Z,9.17
2023-03-16T15:59:06.028Z,8.86
2023-03-16T16:04:03.434Z,8.94
2023-03-16T16:08:59.882Z,8.80
2023-03-16T16:13:57.894Z,8.60
2023-03-16T16:18:55.109Z,8.56
2023-03-16T16:23:52.165Z,8.51
2023-03-16T16:28:49.226Z,8.33
2023-03-16T16:33:45.711Z,8.27
2023-03-16T16:38:42.039Z,8.22
2023-03-16T16:43:41.808Z,8.25
2023-03-16T16:48:42.340Z,8.36
2023-03-16T16:53:38.706Z,8.69
2023-03-16T16:58:35.537Z,9.73
2023-03-16T17:03:31.960Z,9.72
2023-03-16T17:08:28.569Z,8.55
2023-03-16T17:13:29.965Z,7.92
2023-03-16T17:18:27.037Z,7.70
2023-03-16T17:23:33.104Z,7.49
2023-03-16T17:28:35.198Z,7.27
2023-03-16T17:33:31.803Z,7.16
2023-03-16T17:38:28.253Z,7.03
2023-03-16T17:43:24.764Z,6.92
2023-03-16T17:48:24.073Z,6.95
2023-03-16T17:53:21.762Z,6.80
2023-03-16T17:58:28.080Z,6.67
2023-03-16T18:03:27.504Z,6.64
2023-03-16T18:08:27.611Z,6.59
2023-03-16T18:13:28.727Z,6.50
2023-03-16T18:18:27.734Z,6.45
2023-03-16T18:23:30.111Z,6.49
2023-03-16T18:28:27.966Z,6.38
2023-03-16T18:33:30.070Z,6.40
2023-03-16T18:38:36.818Z,6.42
2023-03-16T18:43:33.166Z,6.41
2023-03-16T18:48:33.175Z,6.45
2023-03-16T18:53:29.693Z,6.45
2023-03-16T18:58:26.425Z,6.45
2023-03-16T19:03:27.009Z,6.42
2023-03-16T19:08:25.621Z,6.44
2023-03-16T19:13:24.178Z,6.46
2023-03-16T19:18:21.181Z,6.44
2023-03-16T19:23:58.402Z,6.34
2023-03-16T19:28:55.120Z,6.32
2023-03-16T19:33:52.433Z,6.29
2023-03-16T19:38:52.108Z,6.34
2023-03-16T19:43:48.713Z,6.22
2023-03-16T19:48:45.614Z,6.17
2023-03-16T19:53:42.296Z,6.25
2023-03-16T19:58:39.291Z,6.16
2023-03-16T20:03:36.510Z,5.97
2023-03-16T20:08:33.006Z,5.93
2023-03-16T20:13:31.406Z,5.96
2023-03-16T20:18:29.273Z,5.75
2023-03-16T20:23:29.108Z,5.68
2023-03-16T20:28:34.796Z,5.67
2023-03-16T20:33:32.395Z,5.66
2023-03-16T20:38:28.704Z,5.62
2023-03-16T20:43:28.405Z,5.61
2023-03-16T20:48:25.977Z,5.59
2023-03-16T20:53:23.396Z,5.55
2023-03-16T20:58:25.491Z,5.64
2023-03-16T21:03:30.769Z,5.65
2023-03-16T21:08:27.765Z,5.65
2023-03-16T21:13:30.415Z,5.76
2023-03-16T21:18:27.763Z,5.73
2023-03-16T21:23:24.172Z,5.65
2023-03-16T21:28:21.763Z,5.67
2023-03-16T21:33:40.144Z,5.57
2023-03-16T21:38:36.683Z,5.53
2023-03-16T21:43:33.116Z,5.55
2023-03-16T21:48:37.414Z,5.54
2023-03-16T21:53:34.100Z,5.54
2023-03-16T21:58:30.476Z,5.52
2023-03-16T22:03:33.014Z,5.56
2023-03-16T22:08:35.696Z,5.60
2023-03-16T22:13:33.414Z,5.57
2023-03-16T22:18:37.898Z,5.57
2023-03-16T22:23:36.501Z,5.53
2023-03-16T22:28:33.012Z,5.49
2023-03-16T22:33:33.040Z,5.43
2023-03-16T22:38:29.467Z,5.43
2023-03-16T22:43:32.054Z,5.40
2023-03-16T22:48:29.923Z,5.33
2023-03-16T22:53:37.845Z,5.20
2023-03-16T22:58:46.394Z,5.14
2023-03-16T23:03:43.359Z,5.13
2023-03-16T23:08:39.722Z,5.13
2023-03-16T23:13:37.239Z,5.21
2023-03-16T23:18:34.765Z,5.21
2023-03-16T23:23:31.129Z,5.15
2023-03-16T23:28:27.489Z,5.15
2023-03-16T23:33:23.804Z,5.21
2023-03-16T23:38:20.134Z,5.14
2023-03-16T23:43:17.154Z,5.09
2023-03-16T23:48:19.298Z,5.11
2023-03-16T23:53:17.917Z,5.13
2023-03-16T23:58:16.298Z,5.08
